createdAt,value
2017-10-11T00:00:04.261Z,92.50
2017-10-11T00:02:32.701Z,92.21
2017-10-11T00:05:01.194Z,92.38
2017-10-11T00:07:29.657Z,92.49
2017-10-11T00:09:58.162Z,92.50
2017-10-11T00:12:27.054Z,92.45
2017-10-11T00:14:55.506Z,92.73
2017-10-11T00:17:24.837Z,92.85
2017-10-11T00:19:53.314Z,92.80
2017-10-11T00:22:21.809Z,92.59
2017-10-11T00:24:50.249Z,92.71
2017-10-11T00:27:19.576Z,92.62
2017-10-11T00:29:48.066Z,92.48
2017-10-11T00:32:16.525Z,92.68
2017-10-11T00:34:45.091Z,92.66
2017-10-11T00:37:14.318Z,92.73
2017-10-11T00:39:42.765Z,92.58
2017-10-11T00:42:12.634Z,92.63
2017-10-11T00:44:41.078Z,92.47
2017-10-11T00:47:10.303Z,92.71
2017-10-11T00:49:38.765Z,92.45
2017-10-11T00:52:07.273Z,92.48
2017-10-11T00:54:35.737Z,92.33
2017-10-11T00:57:04.177Z,92.58
2017-10-11T00:59:32.641Z,92.52
2017-10-11T01:02:01.082Z,92.60
2017-10-11T01:04:29.541Z,92.81
2017-10-11T01:06:58.782Z,92.98
2017-10-11T01:09:27.359Z,93.15
2017-10-11T02:23:35.261Z,97.22
2017-10-11T02:26:03.704Z,97.28
2017-10-11T02:28:33.055Z,97.26
2017-10-11T02:31:01.494Z,97.21
2017-10-11T02:33:30.721Z,97.17
2017-10-11T02:35:59.218Z,97.12
2017-10-11T02:38:27.687Z,97.23
2017-10-11T02:40:56.187Z,97.21
2017-10-11T02:43:24.653Z,97.19
2017-10-11T02:45:53.121Z,97.26
2017-10-11T02:48:21.563Z,97.09
2017-10-11T02:50:50.025Z,97.07
2017-10-11T02:53:18.480Z,97.04
2017-10-11T02:55:46.945Z,96.91
2017-10-11T02:58:15.390Z,96.80
2017-10-11T03:00:43.860Z,96.84
2017-10-11T03:03:12.411Z,96.79
2017-10-11T03:05:40.877Z,96.38
2017-10-11T03:08:09.372Z,96.38
2017-10-11T03:10:37.837Z,96.28
2017-10-11T03:13:06.278Z,96.24
2017-10-11T03:15:34.741Z,96.16
2017-10-11T03:18:03.216Z,95.97
2017-10-11T03:20:31.688Z,96.12
2017-10-11T03:23:00.149Z,95.97
2017-10-11T03:25:28.653Z,95.89
2017-10-11T03:27:57.209Z,95.79
2017-10-11T03:30:25.715Z,95.66
2017-10-11T03:32:54.192Z,95.75
2017-10-11T03:35:22.633Z,95.54
2017-10-11T03:37:51.979Z,95.43
2017-10-11T03:40:20.469Z,95.42
2017-10-11T03:42:48.939Z,95.25
2017-10-11T03:45:17.384Z,95.41
2017-10-11T03:47:46.612Z,95.25
2017-10-11T03:50:15.106Z,95.16
2017-10-11T03:52:43.573Z,95.15
2017-10-11T03:55:12.008Z,95.21
2017-10-11T03:57:41.237Z,94.84
2017-10-11T04:00:10.464Z,94.81
2017-10-11T04:02:38.945Z,94.68
2017-10-11T04:05:07.385Z,94.66
2017-10-11T04:07:36.606Z,94.63
2017-10-11T04:10:05.065Z,94.48
2017-10-11T04:12:34.281Z,94.58
2017-10-11T04:15:03.518Z,94.30
2017-10-11T04:17:31.958Z,94.23
2017-10-11T04:20:01.192Z,94.37
2017-10-11T04:22:29.677Z,94.03
2017-10-11T04:24:58.145Z,94.13
2017-10-11T04:27:26.593Z,94.25
2017-10-11T04:29:55.826Z,94.17
2017-10-11T04:32:24.266Z,94.10
2017-10-11T04:34:53.505Z,94.03
2017-10-11T04:37:21.945Z,94.17
2017-10-11T04:39:50.413Z,93.78
2017-10-11T04:42:18.857Z,93.81
2017-10-11T04:44:47.326Z,93.71
2017-10-11T04:47:15.770Z,93.53
2017-10-11T04:49:44.221Z,93.41
2017-10-11T04:52:12.691Z,93.37
2017-10-11T04:54:41.133Z,93.33
2017-10-11T04:57:10.357Z,93.37
2017-10-11T04:59:38.805Z,93.40
2017-10-11T05:02:08.043Z,93.41
2017-10-11T05:04:36.489Z,93.35
2017-10-11T05:07:05.725Z,93.23
2017-10-11T05:09:34.177Z,93.35
2017-10-11T05:12:03.511Z,93.16
2017-10-11T05:14:31.949Z,93.06
2017-10-11T05:17:01.181Z,93.17
2017-10-11T05:19:29.625Z,93.17
2017-10-11T05:21:58.084Z,93.06
2017-10-11T05:24:26.647Z,93.26
2017-10-11T05:26:55.113Z,93.16
2017-10-11T05:29:23.548Z,93.31
2017-10-11T05:31:52.019Z,93.19
2017-10-11T05:34:20.567Z,93.29
2017-10-11T05:36:49.013Z,93.19
2017-10-11T05:39:18.356Z,93.41
2017-10-11T05:41:46.830Z,93.47
2017-10-11T05:44:15.421Z,93.21
2017-10-11T05:46:44.354Z,93.13
2017-10-11T05:49:12.834Z,93.02
2017-10-11T05:51:41.382Z,92.79
2017-10-11T05:54:10.069Z,92.92
2017-10-11T05:56:38.505Z,92.74
2017-10-11T05:59:07.732Z,92.68
2017-10-11T06:01:36.177Z,92.79
2017-10-11T06:04:04.707Z,93.14
2017-10-11T06:06:33.144Z,92.73
2017-10-11T06:09:02.617Z,92.70
2017-10-11T06:11:31.066Z,92.75
2017-10-11T06:13:59.562Z,92.52
2017-10-11T06:16:28.038Z,92.43
2017-10-11T06:18:56.476Z,92.31
2017-10-11T06:21:25.711Z,92.58
2017-10-11T06:23:54.208Z,92.16
2017-10-11T06:26:22.678Z,91.93
2017-10-11T06:28:51.116Z,91.95
2017-10-11T06:31:20.349Z,91.94
2017-10-11T06:33:48.845Z,92.00
2017-10-11T06:36:17.336Z,91.94
2017-10-11T06:38:45.815Z,91.58
2017-10-11T06:41:14.302Z,91.99
2017-10-11T06:43:42.758Z,91.79
2017-10-11T06:46:11.222Z,91.84
2017-10-11T06:48:40.441Z,91.88
2017-10-11T06:51:08.910Z,91.67
2017-10-11T06:53:38.132Z,91.63
2017-10-11T06:56:06.593Z,91.72
2017-10-11T06:58:35.797Z,91.55
2017-10-11T07:01:04.265Z,91.23
2017-10-11T07:03:33.498Z,91.39
2017-10-11T07:06:01.987Z,91.22
2017-10-11T07:08:30.470Z,91.41
2017-10-11T07:10:58.932Z,91.14
2017-10-11T07:13:27.425Z,91.29
2017-10-11T07:15:55.908Z,91.16
2017-10-11T07:18:24.372Z,90.99
2017-10-11T07:20:52.868Z,91.44
2017-10-11T07:23:21.462Z,90.98
2017-10-11T07:25:50.757Z,90.73
2017-10-11T07:28:19.226Z,90.75
2017-10-11T07:30:47.728Z,90.76
2017-10-11T07:33:16.313Z,90.56
2017-10-11T07:35:44.785Z,90.42
2017-10-11T07:38:13.245Z,90.41
2017-10-11T07:40:42.451Z,90.67
2017-10-11T07:43:10.920Z,90.71
2017-10-11T07:45:40.138Z,90.96
2017-10-11T07:48:08.606Z,90.98
2017-10-11T07:50:37.829Z,90.77
2017-10-11T07:53:06.299Z,90.86
2017-10-11T07:55:34.737Z,90.64
2017-10-11T07:58:03.272Z,90.47
2017-10-11T08:00:31.718Z,90.34
2017-10-11T08:03:01.056Z,89.97
2017-10-11T08:05:29.502Z,89.90
2017-10-11T08:07:58.848Z,89.51
2017-10-11T08:10:27.329Z,89.37
2017-10-11T08:12:55.812Z,89.19
2017-10-11T08:15:24.273Z,88.96
2017-10-11T08:17:52.771Z,88.70
2017-10-11T08:20:21.246Z,88.40
2017-10-11T08:22:49.695Z,87.90
2017-10-11T08:25:18.921Z,87.73
2017-10-11T08:27:47.361Z,86.79
2017-10-11T08:30:15.834Z,86.26
2017-10-11T08:32:44.386Z,85.59
2017-10-11T08:35:15.717Z,85.24
2017-10-11T08:37:44.164Z,85.03
2017-10-11T08:40:13.518Z,84.64
2017-10-11T08:42:41.958Z,84.25
2017-10-11T08:45:11.300Z,84.09
2017-10-11T08:47:39.749Z,83.92
2017-10-11T08:50:08.982Z,84.51
2017-10-11T08:52:37.561Z,84.49
2017-10-11T08:55:06.045Z,84.59
2017-10-11T08:57:34.513Z,84.07
2017-10-11T09:00:02.957Z,83.20
2017-10-11T09:02:31.426Z,83.07
2017-10-11T09:04:59.870Z,82.98
2017-10-11T09:07:28.455Z,83.33
2017-10-11T09:09:56.901Z,83.82
2017-10-11T09:12:26.135Z,83.68
2017-10-11T09:14:54.582Z,84.30
2017-10-11T09:17:23.815Z,84.03
2017-10-11T09:19:52.292Z,84.17
2017-10-11T09:22:20.784Z,83.92
2017-10-11T09:24:49.248Z,84.44
2017-10-11T09:27:17.789Z,84.84
2017-10-11T09:29:46.225Z,84.61
2017-10-11T09:32:14.669Z,83.62
2017-10-11T09:34:43.899Z,83.50
2017-10-11T09:37:12.340Z,83.20
2017-10-11T09:39:40.806Z,83.00
2017-10-11T09:42:09.358Z,83.10
2017-10-11T09:44:37.821Z,83.47
2017-10-11T09:47:06.305Z,82.86
2017-10-11T09:49:34.803Z,82.49
2017-10-11T09:52:03.254Z,82.03
2017-10-11T09:54:32.577Z,81.56
2017-10-11T09:57:01.022Z,81.31
2017-10-11T09:59:30.248Z,81.06
2017-10-11T10:01:58.686Z,80.57
2017-10-11T10:04:27.226Z,79.63
2017-10-11T10:06:55.660Z,78.92
2017-10-11T10:09:24.898Z,79.19
2017-10-11T10:11:53.385Z,79.54
2017-10-11T10:14:21.853Z,79.46
2017-10-11T10:16:50.309Z,79.19
2017-10-11T10:19:19.518Z,79.51
2017-10-11T10:21:48.849Z,79.96
2017-10-11T10:24:17.347Z,80.63
2017-10-11T10:26:45.805Z,81.29
2017-10-11T10:29:14.246Z,81.25
2017-10-11T10:31:42.705Z,81.30
2017-10-11T10:34:11.147Z,81.87
2017-10-11T10:36:39.642Z,81.67
2017-10-11T10:39:08.126Z,81.69
2017-10-11T10:41:36.597Z,81.85
2017-10-11T10:44:05.041Z,82.23
2017-10-11T10:46:33.500Z,81.60
2017-10-11T10:49:01.951Z,81.02
2017-10-11T10:51:30.530Z,80.78
2017-10-11T10:53:59.021Z,80.11
2017-10-11T10:56:27.505Z,80.60
2017-10-11T10:58:55.982Z,80.47
2017-10-11T11:01:24.416Z,79.85
2017-10-11T11:03:53.662Z,79.73
2017-10-11T11:06:22.097Z,79.98
2017-10-11T11:08:51.328Z,80.08
2017-10-11T11:11:19.766Z,80.35
2017-10-11T11:13:48.217Z,81.62
2017-10-11T11:16:16.652Z,82.03
2017-10-11T11:18:45.987Z,82.70
2017-10-11T11:21:14.444Z,82.69
2017-10-11T11:23:42.914Z,82.72
2017-10-11T11:26:12.118Z,83.07
2017-10-11T11:28:41.346Z,84.00
2017-10-11T11:31:09.831Z,84.48
2017-10-11T11:33:38.293Z,85.44
2017-10-11T11:36:06.795Z,86.35
2017-10-11T11:38:35.224Z,87.07
2017-10-11T11:41:03.680Z,87.77
2017-10-11T11:43:32.118Z,88.40
2017-10-11T11:46:00.574Z,88.78
2017-10-11T11:48:29.826Z,90.04
2017-10-11T11:50:58.618Z,90.45
2017-10-11T11:53:27.063Z,91.27
2017-10-11T11:55:55.526Z,91.56
2017-10-11T11:58:24.733Z,91.82
2017-10-11T12:00:54.070Z,92.05
2017-10-11T12:03:22.510Z,92.06
2017-10-11T12:05:51.733Z,92.40
2017-10-11T12:08:20.233Z,91.81
2017-10-11T12:10:48.697Z,91.81
2017-10-11T12:13:17.134Z,90.91
2017-10-11T12:15:45.578Z,89.76
2017-10-11T12:18:14.161Z,89.66
2017-10-11T12:20:42.597Z,89.47
2017-10-11T12:23:11.057Z,89.42
2017-10-11T12:25:39.502Z,89.36
2017-10-11T12:28:07.967Z,89.39
2017-10-11T12:30:36.397Z,89.39
2017-10-11T12:33:04.857Z,89.48
2017-10-11T12:35:33.298Z,89.19
2017-10-11T12:38:02.635Z,89.24
2017-10-11T12:40:31.129Z,89.01
2017-10-11T12:42:59.605Z,88.96
2017-10-11T12:45:28.042Z,88.87
2017-10-11T12:47:57.269Z,88.37
2017-10-11T12:50:25.766Z,88.35
2017-10-11T12:52:54.236Z,88.98
2017-10-11T12:55:22.673Z,89.84
2017-10-11T12:57:51.142Z,90.91
2017-10-11T13:00:19.684Z,91.44
2017-10-11T13:02:48.138Z,91.71
2017-10-11T13:05:17.365Z,92.08
2017-10-11T13:07:45.806Z,92.15
2017-10-11T13:10:15.042Z,91.87
2017-10-11T13:12:43.485Z,92.35
2017-10-11T13:15:12.717Z,92.67
2017-10-11T13:17:41.161Z,93.44
2017-10-11T13:20:10.522Z,93.60
2017-10-11T13:22:39.585Z,93.48
2017-10-11T13:25:08.927Z,93.90
2017-10-11T13:27:37.396Z,93.71
2017-10-11T13:30:05.865Z,93.49
2017-10-11T13:32:34.310Z,93.88
2017-10-11T13:35:04.491Z,94.11
2017-10-11T13:37:32.939Z,94.12
2017-10-11T13:40:01.418Z,94.31
2017-10-11T13:42:30.955Z,94.45
2017-10-11T13:44:59.643Z,94.40
2017-10-11T13:47:28.105Z,94.08
2017-10-11T13:49:56.542Z,94.55
2017-10-11T13:52:25.001Z,94.62
2017-10-11T13:54:53.468Z,94.80
2017-10-11T13:57:22.047Z,94.58
2017-10-11T13:59:50.535Z,94.51
2017-10-11T14:02:18.997Z,94.54
2017-10-11T14:04:47.494Z,94.62
2017-10-11T14:07:15.959Z,94.79
2017-10-11T14:09:44.406Z,94.80
2017-10-11T14:12:13.047Z,94.72
2017-10-11T14:14:41.489Z,94.70
2017-10-11T14:17:10.713Z,94.54
2017-10-11T14:19:39.148Z,94.75
2017-10-11T14:22:07.609Z,94.41
2017-10-11T14:24:36.074Z,94.48
2017-10-11T14:27:04.625Z,94.44
2017-10-11T14:29:33.071Z,94.22
2017-10-11T14:32:01.613Z,94.66
2017-10-11T14:34:30.102Z,94.48
2017-10-11T14:36:58.541Z,94.07
2017-10-11T14:39:27.781Z,94.03
2017-10-11T14:41:56.754Z,94.30
2017-10-11T14:44:25.217Z,94.29
2017-10-11T14:46:54.460Z,94.17
2017-10-11T14:49:23.042Z,93.93
2017-10-11T14:51:51.485Z,93.89
2017-10-11T14:54:20.722Z,93.82
2017-10-11T14:56:49.165Z,93.75
2017-10-11T14:59:18.391Z,93.98
2017-10-11T15:01:46.841Z,93.76
2017-10-11T15:04:16.068Z,93.61
2017-10-11T15:06:44.561Z,93.84
2017-10-11T15:09:13.038Z,93.63
2017-10-11T15:11:41.486Z,93.34
2017-10-11T15:14:10.728Z,93.37
2017-10-11T15:16:39.169Z,93.46
2017-10-11T15:19:08.408Z,93.25
2017-10-11T15:21:36.887Z,93.22
2017-10-11T15:24:05.374Z,93.02
2017-10-11T15:26:33.957Z,93.07
2017-10-11T15:29:02.397Z,93.09
2017-10-11T15:31:31.630Z,92.88
2017-10-11T15:34:00.070Z,92.62
2017-10-11T15:36:29.301Z,92.77
2017-10-11T15:38:57.801Z,92.30
2017-10-11T15:41:26.272Z,92.19
2017-10-11T15:43:54.780Z,91.82
2017-10-11T15:46:23.346Z,92.05
2017-10-11T15:48:51.793Z,91.93
2017-10-11T15:51:21.128Z,91.81
2017-10-11T15:53:49.617Z,92.06
2017-10-11T15:56:18.094Z,91.43
2017-10-11T15:58:46.542Z,91.29
2017-10-11T16:01:15.778Z,91.59
2017-10-11T16:03:44.226Z,91.51
2017-10-11T16:06:13.437Z,91.70
2017-10-11T16:08:41.897Z,91.67
2017-10-11T16:11:11.105Z,91.98
2017-10-11T16:13:40.447Z,91.65
2017-10-11T16:16:08.889Z,91.84
2017-10-11T16:18:38.113Z,91.83
2017-10-11T16:21:06.558Z,91.91
2017-10-11T16:23:35.894Z,91.65
2017-10-11T16:26:04.354Z,91.62
2017-10-11T16:28:33.577Z,91.62
2017-10-11T16:31:02.033Z,91.86
2017-10-11T16:33:31.369Z,91.53
2017-10-11T16:36:00.349Z,91.65
2017-10-11T16:38:28.839Z,91.59
2017-10-11T16:40:57.281Z,91.43
2017-10-11T16:43:26.485Z,91.45
2017-10-11T16:45:55.724Z,91.52
2017-10-11T16:48:24.170Z,91.35
2017-10-11T16:50:53.514Z,91.38
2017-10-11T16:53:21.958Z,91.44
2017-10-11T16:55:51.188Z,91.44
2017-10-11T16:58:19.634Z,91.39
2017-10-11T17:00:48.864Z,91.41
2017-10-11T17:03:17.372Z,91.35
2017-10-11T17:05:45.846Z,91.23
2017-10-11T17:08:14.285Z,91.35
2017-10-11T17:10:43.518Z,91.31
2017-10-11T17:13:11.991Z,91.25
2017-10-11T17:15:40.468Z,91.34
2017-10-11T17:18:08.954Z,90.99
2017-10-11T17:20:37.430Z,91.08
2017-10-11T17:23:05.894Z,90.92
2017-10-11T17:25:35.134Z,90.87
2017-10-11T17:28:03.583Z,90.74
2017-10-11T17:30:32.046Z,90.79
2017-10-11T17:33:01.288Z,90.93
2017-10-11T17:35:29.852Z,90.71
2017-10-11T17:37:58.346Z,90.60
2017-10-11T17:40:26.936Z,90.60
2017-10-11T17:42:55.397Z,90.59
2017-10-11T17:45:23.843Z,90.38
2017-10-11T17:47:53.506Z,89.90
2017-10-11T17:50:21.949Z,90.03
2017-10-11T17:52:51.182Z,89.75
2017-10-11T17:55:19.633Z,89.52
2017-10-11T17:57:48.866Z,89.41
2017-10-11T18:00:17.310Z,89.24
2017-10-11T18:02:46.644Z,88.91
2017-10-11T18:05:15.130Z,88.95
2017-10-11T18:07:43.594Z,89.00
2017-10-11T18:10:12.029Z,88.77
2017-10-11T18:12:40.578Z,88.76
2017-10-11T18:15:09.059Z,88.48
2017-10-11T18:17:37.525Z,88.48
2017-10-11T18:20:06.023Z,88.20
2017-10-11T18:22:34.601Z,88.41
2017-10-11T18:25:03.043Z,88.46
2017-10-11T18:27:33.001Z,88.22
2017-10-11T18:30:01.442Z,88.37
2017-10-11T18:32:30.679Z,88.32
2017-10-11T18:34:59.127Z,88.51
2017-10-11T18:37:28.465Z,88.38
2017-10-11T18:39:56.896Z,88.13
2017-10-11T18:42:25.337Z,88.06
2017-10-11T18:44:53.915Z,87.57
2017-10-11T18:47:22.349Z,87.83
2017-10-11T18:49:50.813Z,87.77
2017-10-11T18:52:19.250Z,87.28
2017-10-11T18:54:47.725Z,86.87
2017-10-11T18:57:16.229Z,86.71
2017-10-11T18:59:44.703Z,86.44
2017-10-11T19:02:13.152Z,85.97
2017-10-11T19:04:42.485Z,85.98
2017-10-11T19:07:10.975Z,85.73
2017-10-11T19:09:39.441Z,85.95
2017-10-11T19:12:07.881Z,85.69
2017-10-11T19:14:36.417Z,85.30
2017-10-11T19:17:04.929Z,84.55
2017-10-11T19:19:33.397Z,84.53
2017-10-11T19:22:01.871Z,84.10
2017-10-11T19:24:30.327Z,84.16
2017-10-11T19:26:58.797Z,84.32
2017-10-11T19:29:28.021Z,84.02
2017-10-11T19:31:56.614Z,84.29
2017-10-11T19:34:25.062Z,83.47
2017-10-11T19:36:54.298Z,83.58
2017-10-11T19:39:22.736Z,83.06
2017-10-11T19:41:52.075Z,82.75
2017-10-11T19:44:20.519Z,83.02
2017-10-11T19:46:49.754Z,83.33
2017-10-11T19:49:18.192Z,82.43
2017-10-11T19:51:47.427Z,82.72
2017-10-11T19:54:15.869Z,82.65
2017-10-11T19:56:45.101Z,82.66
2017-10-11T19:59:13.541Z,82.69
2017-10-11T20:01:42.022Z,82.25
2017-10-11T20:04:10.466Z,82.43
2017-10-11T20:06:38.904Z,82.64
2017-10-11T20:09:08.142Z,82.80
2017-10-11T20:11:36.585Z,82.42
2017-10-11T20:14:05.814Z,82.73
2017-10-11T20:16:34.310Z,82.83
2017-10-11T20:19:03.609Z,82.26
2017-10-11T20:21:32.054Z,82.26
2017-10-11T20:24:01.391Z,82.94
2017-10-11T20:26:29.865Z,82.17
2017-10-11T20:28:58.328Z,82.55
2017-10-11T20:31:26.834Z,82.53
2017-10-11T20:33:55.414Z,82.31
2017-10-11T20:36:23.865Z,82.21
2017-10-11T20:38:53.213Z,82.35
2017-10-11T20:41:21.657Z,81.93
2017-10-11T20:43:50.882Z,82.10
2017-10-11T20:46:19.460Z,81.87
2017-10-11T20:48:47.901Z,82.34
2017-10-11T20:51:17.153Z,82.09
2017-10-11T20:53:45.593Z,81.97
2017-10-11T20:56:14.816Z,81.72
2017-10-11T20:58:43.309Z,81.98
2017-10-11T21:01:11.774Z,82.12
2017-10-11T21:03:40.281Z,81.93
2017-10-11T21:06:10.370Z,81.99
2017-10-11T21:08:38.828Z,81.92
2017-10-11T21:11:08.060Z,81.90
2017-10-11T21:13:36.505Z,81.78
2017-10-11T21:16:04.977Z,81.62
2017-10-11T21:18:33.418Z,81.55
2017-10-11T21:21:01.876Z,81.40
2017-10-11T21:23:31.085Z,81.77
2017-10-11T21:25:59.586Z,81.59
2017-10-11T21:28:28.063Z,81.75
2017-10-11T21:30:56.530Z,81.76
2017-10-11T21:33:25.033Z,81.76
2017-10-11T21:35:53.493Z,81.70
2017-10-11T21:38:21.939Z,81.71
2017-10-11T21:40:50.381Z,81.87
2017-10-11T21:43:18.847Z,81.51
2017-10-11T21:45:47.298Z,81.27
2017-10-11T21:48:16.641Z,81.25
2017-10-11T21:50:45.077Z,81.34
2017-10-11T21:53:14.304Z,81.67
2017-10-11T21:55:42.799Z,81.30
2017-10-11T21:58:11.261Z,80.81
2017-10-11T22:00:39.698Z,81.12
2017-10-11T22:03:08.241Z,80.93
2017-10-11T22:05:36.682Z,80.80
2017-10-11T22:08:05.918Z,80.58
2017-10-11T22:10:34.406Z,80.59
2017-10-11T22:13:02.882Z,80.76
2017-10-11T22:15:31.325Z,80.04
2017-10-11T22:18:00.562Z,80.08
2017-10-11T22:20:29.006Z,79.41
2017-10-11T22:22:58.233Z,78.75
2017-10-11T22:25:26.735Z,79.03
2017-10-11T22:27:55.177Z,78.77
2017-10-11T22:30:24.405Z,78.62
2017-10-11T22:32:52.842Z,78.34
2017-10-11T22:35:21.306Z,78.49
2017-10-11T22:37:49.743Z,78.00
2017-10-11T22:40:18.205Z,78.08
2017-10-11T22:42:47.430Z,77.79
2017-10-11T22:45:15.925Z,77.53
2017-10-11T22:47:44.374Z,77.23
2017-10-11T22:50:13.609Z,76.78
2017-10-11T22:52:42.048Z,76.38
2017-10-11T22:55:11.390Z,76.25
2017-10-11T22:57:39.830Z,76.53
2017-10-11T23:00:09.147Z,76.01
2017-10-11T23:02:37.594Z,76.24
2017-10-11T23:05:06.129Z,76.27
2017-10-11T23:07:34.561Z,76.37
2017-10-11T23:10:03.103Z,76.36
2017-10-11T23:12:31.558Z,76.52
2017-10-11T23:14:59.993Z,76.71
2017-10-11T23:17:28.458Z,76.72
2017-10-11T23:19:56.893Z,76.47
2017-10-11T23:22:26.117Z,77.48
2017-10-11T23:24:54.560Z,78.36
2017-10-11T23:27:23.797Z,78.88
2017-10-11T23:29:52.229Z,79.41
2017-10-11T23:32:20.684Z,79.88
2017-10-11T23:34:49.126Z,80.16
2017-10-11T23:37:17.585Z,80.60
2017-10-11T23:39:46.831Z,80.42
2017-10-11T23:42:15.310Z,80.50
2017-10-11T23:44:43.757Z,80.73
2017-10-11T23:47:12.986Z,80.84
2017-10-11T23:49:41.420Z,80.97
2017-10-11T23:52:10.645Z,81.35
2017-10-11T23:54:39.845Z,81.45
2017-10-11T23:57:09.171Z,81.70
2017-10-11T23:59:37.610Z,81.83
